createdAt,value
2019-06-26T00:03:42.163Z,26.82
2019-06-26T00:07:43.924Z,26.68
2019-06-26T00:11:45.637Z,26.62
2019-06-26T00:15:47.375Z,26.44
2019-06-26T00:19:49.443Z,26.43
2019-06-26T00:23:51.631Z,26.33
2019-06-26T00:27:53.344Z,26.22
2019-06-26T00:31:55.128Z,26.18
2019-06-26T00:35:56.834Z,26.03
2019-06-26T00:39:58.544Z,25.97
2019-06-26T00:44:00.722Z,25.95
2019-06-26T00:48:02.490Z,25.90
2019-06-26T00:52:04.302Z,25.84
2019-06-26T00:56:06.029Z,25.79
2019-06-26T01:00:08.244Z,25.75
2019-06-26T01:04:09.990Z,25.78
2019-06-26T01:08:11.690Z,25.51
2019-06-26T01:12:13.417Z,25.38
2019-06-26T01:16:15.261Z,25.35
2019-06-26T01:20:17.257Z,25.43
2019-06-26T01:24:18.970Z,25.44
2019-06-26T01:28:20.676Z,25.28
2019-06-26T01:32:22.797Z,25.22
2019-06-26T01:36:24.515Z,25.35
2019-06-26T01:40:26.224Z,25.35
2019-06-26T01:44:28.676Z,25.31
2019-06-26T01:48:30.415Z,25.26
2019-06-26T01:52:32.118Z,25.23
2019-06-26T01:56:34.113Z,25.19
2019-06-26T02:00:36.208Z,25.15
2019-06-26T02:04:37.967Z,25.05
2019-06-26T02:08:40.242Z,24.96
2019-06-26T02:12:41.980Z,24.90
2019-06-26T02:16:43.755Z,24.90
2019-06-26T02:20:45.749Z,24.80
2019-06-26T02:24:47.490Z,24.72
2019-06-26T02:28:49.294Z,24.58
2019-06-26T02:32:51.332Z,24.55
2019-06-26T02:36:53.053Z,24.54
2019-06-26T02:40:54.762Z,24.49
2019-06-26T02:44:56.580Z,24.47
2019-06-26T02:48:58.468Z,24.41
2019-06-26T02:53:00.200Z,24.34
2019-06-26T02:57:02.261Z,24.22
2019-06-26T03:01:03.967Z,24.13
2019-06-26T03:05:05.961Z,24.08
2019-06-26T03:09:07.969Z,24.08
2019-06-26T03:13:10.369Z,24.09
2019-06-26T03:17:12.094Z,24.08
2019-06-26T03:21:13.854Z,23.97
2019-06-26T03:25:16.411Z,23.88
2019-06-26T03:29:18.306Z,23.88
2019-06-26T03:33:20.305Z,23.71
2019-06-26T03:37:22.011Z,23.74
2019-06-26T03:41:23.815Z,23.62
2019-06-26T03:45:26.575Z,23.58
2019-06-26T03:49:29.255Z,23.49
2019-06-26T03:53:31.028Z,23.52
2019-06-26T03:57:35.346Z,23.55
2019-06-26T04:01:36.751Z,23.41
2019-06-26T04:05:38.459Z,23.33
2019-06-26T04:09:40.538Z,23.39
2019-06-26T04:13:42.306Z,23.36
2019-06-26T04:17:44.384Z,23.35
2019-06-26T04:21:46.253Z,23.31
2019-06-26T04:25:47.973Z,23.21
2019-06-26T04:29:49.709Z,23.20
2019-06-26T04:33:51.412Z,23.20
2019-06-26T04:37:53.200Z,23.33
2019-06-26T04:41:54.879Z,23.40
2019-06-26T04:45:58.573Z,23.45
2019-06-26T04:50:00.333Z,23.46
2019-06-26T04:54:02.337Z,23.39
2019-06-26T04:58:04.421Z,23.49
2019-06-26T05:02:06.137Z,23.45
2019-06-26T05:06:07.901Z,23.41
2019-06-26T05:10:10.552Z,23.32
2019-06-26T05:14:12.346Z,23.42
2019-06-26T05:18:14.445Z,23.49
2019-06-26T05:22:16.576Z,23.62
2019-06-26T05:26:18.374Z,23.61
2019-06-26T05:30:20.551Z,23.84
2019-06-26T05:34:22.579Z,23.77
2019-06-26T05:38:24.724Z,23.87
2019-06-26T05:42:26.743Z,23.92
2019-06-26T05:46:31.532Z,24.27
2019-06-26T05:50:33.388Z,24.84
2019-06-26T05:54:35.534Z,25.26
2019-06-26T05:58:37.380Z,25.23
2019-06-26T06:02:39.744Z,25.03
2019-06-26T06:06:42.492Z,24.68
2019-06-26T06:10:44.531Z,24.58
2019-06-26T06:14:46.804Z,24.47
2019-06-26T06:18:49.162Z,24.59
2019-06-26T06:22:50.992Z,24.88
2019-06-26T06:26:53.234Z,24.88
2019-06-26T06:30:55.117Z,25.15
2019-06-26T06:34:57.101Z,25.13
2019-06-26T06:38:59.278Z,25.16
2019-06-26T06:43:01.845Z,25.11
2019-06-26T06:47:05.590Z,25.14
2019-06-26T06:51:07.552Z,25.31
2019-06-26T06:55:10.225Z,25.23
2019-06-26T06:59:12.441Z,25.38
2019-06-26T07:03:14.150Z,25.48
2019-06-26T07:07:16.262Z,25.48
2019-06-26T07:11:18.377Z,25.72
2019-06-26T07:15:20.476Z,26.04
2019-06-26T07:19:22.372Z,26.22
2019-06-26T07:23:24.070Z,26.18
2019-06-26T07:27:26.301Z,26.13
2019-06-26T07:31:28.080Z,26.07
2019-06-26T07:35:29.785Z,26.21
2019-06-26T07:39:34.546Z,26.44
2019-06-26T07:43:36.539Z,26.58
2019-06-26T07:47:43.718Z,26.63
2019-06-26T07:51:42.767Z,26.58
2019-06-26T07:55:44.881Z,26.67
2019-06-26T07:59:46.871Z,26.69
2019-06-26T08:03:48.590Z,26.70
2019-06-26T08:07:51.723Z,26.62
2019-06-26T08:11:54.307Z,26.93
2019-06-26T08:15:57.107Z,26.98
2019-06-26T08:19:59.196Z,27.06
2019-06-26T08:24:01.305Z,27.21
2019-06-26T08:28:03.106Z,27.32
2019-06-26T08:32:04.945Z,27.54
2019-06-26T08:36:06.836Z,27.52
2019-06-26T08:40:08.864Z,27.63
2019-06-26T08:44:10.588Z,27.78
2019-06-26T08:48:19.243Z,27.75
2019-06-26T08:52:16.488Z,27.70
2019-06-26T08:56:18.206Z,27.74
2019-06-26T09:00:20.170Z,27.94
2019-06-26T09:04:21.890Z,28.15
2019-06-26T09:08:24.706Z,28.36
2019-06-26T09:12:26.887Z,28.34
2019-06-26T09:16:28.717Z,28.54
2019-06-26T09:20:36.313Z,28.60
2019-06-26T09:24:38.155Z,28.53
2019-06-26T09:28:40.445Z,28.49
2019-06-26T09:32:46.269Z,28.29
2019-06-26T09:36:54.885Z,28.31
2019-06-26T09:40:57.315Z,28.07
2019-06-26T09:44:59.170Z,27.94
2019-06-26T09:49:04.292Z,28.14
2019-06-26T09:53:06.474Z,28.35
2019-06-26T09:57:09.630Z,28.26
2019-06-26T10:01:13.327Z,28.41
2019-06-26T10:05:15.706Z,28.57
2019-06-26T10:09:18.631Z,28.74
2019-06-26T10:13:20.922Z,29.17
2019-06-26T10:17:23.273Z,29.28
2019-06-26T10:21:25.075Z,29.14
2019-06-26T10:25:28.029Z,29.43
2019-06-26T10:29:30.206Z,29.80
2019-06-26T10:33:32.384Z,29.80
2019-06-26T10:37:34.252Z,30.06
2019-06-26T10:41:36.941Z,30.20
2019-06-26T10:45:38.711Z,30.07
2019-06-26T10:49:40.423Z,30.11
2019-06-26T10:53:43.151Z,30.28
2019-06-26T10:57:45.453Z,30.25
2019-06-26T11:01:48.178Z,30.29
2019-06-26T11:05:49.976Z,30.29
2019-06-26T11:09:52.874Z,30.38
2019-06-26T11:13:55.367Z,30.71
2019-06-26T11:17:57.716Z,30.70
2019-06-26T11:21:59.436Z,30.74
2019-06-26T11:26:04.209Z,30.82
2019-06-26T11:30:09.256Z,31.02
2019-06-26T11:34:11.580Z,30.92
2019-06-26T11:38:14.399Z,30.80
2019-06-26T11:42:16.657Z,30.59
2019-06-26T11:46:18.752Z,30.73
2019-06-26T11:50:22.663Z,31.11
2019-06-26T11:54:25.219Z,30.87
2019-06-26T11:58:26.993Z,30.61
2019-06-26T12:02:29.477Z,30.47
2019-06-26T12:06:31.745Z,30.53
2019-06-26T12:10:33.539Z,30.61
2019-06-26T12:14:36.139Z,30.84
2019-06-26T12:18:38.078Z,30.54
2019-06-26T12:22:40.583Z,30.25
2019-06-26T12:26:42.370Z,30.20
2019-06-26T12:30:44.928Z,30.01
2019-06-26T12:34:47.104Z,29.84
2019-06-26T12:38:49.180Z,30.17
2019-06-26T12:42:54.526Z,30.39
2019-06-26T12:46:54.901Z,30.12
2019-06-26T12:50:58.270Z,29.96
2019-06-26T12:55:00.071Z,30.66
2019-06-26T12:59:01.930Z,31.01
2019-06-26T13:03:04.472Z,30.86
2019-06-26T13:07:06.796Z,30.60
2019-06-26T13:11:08.578Z,30.66
2019-06-26T13:15:16.446Z,30.82
2019-06-26T13:19:23.995Z,30.76
2019-06-26T13:23:25.886Z,31.08
2019-06-26T13:27:27.935Z,30.95
2019-06-26T13:31:30.293Z,30.71
2019-06-26T13:35:32.681Z,30.84
2019-06-26T13:39:34.962Z,30.66
2019-06-26T13:43:37.029Z,30.88
2019-06-26T13:47:39.246Z,31.05
2019-06-26T13:51:41.009Z,30.82
2019-06-26T13:55:43.168Z,30.22
2019-06-26T13:59:44.985Z,30.29
2019-06-26T14:03:46.790Z,30.16
2019-06-26T14:07:48.979Z,30.41
2019-06-26T14:11:51.696Z,30.54
2019-06-26T14:15:53.827Z,30.42
2019-06-26T14:19:55.869Z,30.16
2019-06-26T14:23:57.734Z,30.25
2019-06-26T14:27:59.904Z,30.29
2019-06-26T14:32:01.656Z,30.30
2019-06-26T14:36:03.386Z,30.37
2019-06-26T14:40:05.432Z,30.36
2019-06-26T14:44:07.181Z,30.29
2019-06-26T14:48:09.086Z,30.75
2019-06-26T14:52:10.986Z,30.68
2019-06-26T14:56:12.823Z,30.44
2019-06-26T15:00:15.986Z,30.54
2019-06-26T15:04:18.484Z,30.55
2019-06-26T15:08:21.175Z,30.62
2019-06-26T15:12:22.996Z,30.51
2019-06-26T15:16:25.844Z,30.42
2019-06-26T15:20:33.344Z,30.29
2019-06-26T15:24:35.060Z,30.70
2019-06-26T15:28:37.259Z,30.85
2019-06-26T15:32:39.583Z,30.51
2019-06-26T15:36:41.694Z,30.69
2019-06-26T15:40:44.404Z,30.44
2019-06-26T15:44:46.592Z,30.64
2019-06-26T15:48:50.415Z,30.34
2019-06-26T15:52:52.465Z,30.45
2019-06-26T15:56:54.310Z,30.63
2019-06-26T16:00:56.062Z,30.55
2019-06-26T16:04:57.824Z,30.70
2019-06-26T16:08:59.946Z,30.31
2019-06-26T16:13:04.220Z,30.30
2019-06-26T16:17:06.911Z,30.37
2019-06-26T16:26:22.410Z,30.12
2019-06-26T16:30:24.665Z,30.36
2019-06-26T16:34:28.049Z,30.62
2019-06-26T16:38:30.322Z,30.75
2019-06-26T16:42:32.514Z,30.87
2019-06-26T16:46:34.604Z,31.04
2019-06-26T16:50:36.806Z,31.07
2019-06-26T16:54:38.894Z,31.17
2019-06-26T16:58:40.837Z,31.83
2019-06-26T17:02:42.564Z,32.35
2019-06-26T17:06:44.270Z,32.18
2019-06-26T17:10:46.410Z,31.59
2019-06-26T17:14:48.546Z,31.57
2019-06-26T17:18:50.729Z,31.63
2019-06-26T17:23:05.011Z,31.51
2019-06-26T17:26:59.576Z,31.21
2019-06-26T17:31:02.458Z,31.31
2019-06-26T17:35:04.841Z,31.48
2019-06-26T17:39:06.696Z,31.41
2019-06-26T17:43:12.652Z,31.43
2019-06-26T17:47:12.916Z,31.01
2019-06-26T17:51:14.627Z,31.05
2019-06-26T17:55:16.404Z,30.83
2019-06-26T17:59:18.149Z,30.51
2019-06-26T18:03:20.123Z,29.95
2019-06-26T18:07:22.641Z,30.04
2019-06-26T18:11:24.674Z,29.96
2019-06-26T18:15:27.009Z,29.61
2019-06-26T18:19:29.454Z,29.35
2019-06-26T18:23:37.562Z,28.87
2019-06-26T18:27:38.058Z,28.66
2019-06-26T18:31:40.912Z,28.53
2019-06-26T18:35:43.307Z,28.56
2019-06-26T18:39:45.852Z,28.39
2019-06-26T18:43:48.928Z,28.29
2019-06-26T18:47:51.307Z,27.90
2019-06-26T18:51:53.575Z,27.76
2019-06-26T18:55:55.913Z,27.61
2019-06-26T19:00:03.205Z,27.50
2019-06-26T19:04:05.812Z,27.31
2019-06-26T19:08:08.587Z,27.21
2019-06-26T19:12:10.885Z,27.09
2019-06-26T19:16:14.227Z,27.03
2019-06-26T19:20:16.509Z,26.81
2019-06-26T19:24:18.907Z,26.59
2019-06-26T19:28:23.287Z,26.44
2019-06-26T19:32:30.750Z,26.53
2019-06-26T19:36:49.013Z,26.37
2019-06-26T19:40:38.856Z,26.19
2019-06-26T19:44:41.919Z,26.23
2019-06-26T19:48:43.717Z,26.10
2019-06-26T19:52:46.519Z,25.89
2019-06-26T19:56:48.653Z,25.87
2019-06-26T20:00:50.833Z,25.52
2019-06-26T20:04:53.015Z,25.46
2019-06-26T20:08:57.635Z,25.32
2019-06-26T20:13:00.572Z,25.15
2019-06-26T20:17:02.799Z,25.24
2019-06-26T20:25:15.311Z,24.72
2019-06-26T20:29:17.900Z,24.71
2019-06-26T20:33:20.436Z,24.72
2019-06-26T20:37:22.294Z,24.51
2019-06-26T20:41:25.491Z,24.39
2019-06-26T20:45:27.231Z,24.38
2019-06-26T20:49:29.438Z,24.40
2019-06-26T20:53:33.975Z,24.29
2019-06-26T20:57:37.071Z,24.11
2019-06-26T21:01:39.732Z,23.85
2019-06-26T21:05:41.957Z,23.94
2019-06-26T21:09:44.004Z,23.75
2019-06-26T21:13:45.742Z,23.79
2019-06-26T21:17:48.715Z,23.71
2019-06-26T21:21:50.801Z,23.77
2019-06-26T21:25:52.738Z,23.58
2019-06-26T21:29:57.597Z,23.41
2019-06-26T21:33:59.423Z,23.26
2019-06-26T21:38:01.291Z,23.26
2019-06-26T21:42:03.156Z,23.12
2019-06-26T21:46:04.909Z,22.96
2019-06-26T21:50:07.076Z,22.99
2019-06-26T21:54:08.871Z,23.01
2019-06-26T21:58:10.796Z,22.97
2019-06-26T22:02:18.572Z,22.75
2019-06-26T22:06:21.835Z,22.84
2019-06-26T22:10:29.398Z,22.78
2019-06-26T22:14:33.737Z,22.83
2019-06-26T22:18:36.161Z,22.36
2019-06-26T22:22:38.135Z,22.47
2019-06-26T22:26:40.792Z,22.58
2019-06-26T22:31:04.747Z,22.28
2019-06-26T22:35:06.728Z,22.29
2019-06-26T22:39:08.944Z,22.21
2019-06-26T22:43:10.732Z,22.07
2019-06-26T22:47:12.530Z,22.17
2019-06-26T22:51:14.529Z,22.21
2019-06-26T22:55:16.706Z,21.95
2019-06-26T22:59:18.464Z,22.01
2019-06-26T23:03:20.332Z,21.66
2019-06-26T23:07:22.489Z,21.52
2019-06-26T23:11:24.671Z,21.44
2019-06-26T23:15:26.821Z,21.41
2019-06-26T23:19:28.987Z,21.45
2019-06-26T23:23:30.999Z,21.29
2019-06-26T23:27:32.717Z,21.26
2019-06-26T23:31:34.437Z,21.11
2019-06-26T23:35:36.319Z,21.05
2019-06-26T23:39:38.438Z,20.98
2019-06-26T23:43:40.239Z,21.03
2019-06-26T23:47:42.597Z,20.79
2019-06-26T23:51:44.692Z,20.85
2019-06-26T23:55:46.788Z,20.60
2019-06-26T23:59:48.788Z,20.39
